sensor_id;sensor_type;location;lat;lon;timestamp;pressure;altitude;pressure_sealevel;temperature;humidity
65557;BME280;52200;53.490;14.376;2023-02-25T00:01:20;99053.81;;;2.06;100.00
65557;BME280;52200;53.490;14.376;2023-02-25T00:03:46;99046.34;;;2.03;99.58
65557;BME280;52200;53.490;14.376;2023-02-25T00:06:12;99055.69;;;1.93;99.95
65557;BME280;52200;53.490;14.376;2023-02-25T00:08:42;99050.81;;;1.88;100.00
65557;BME280;52200;53.490;14.376;2023-02-25T00:11:07;99049.47;;;2.14;100.00
65557;BME280;52200;53.490;14.376;2023-02-25T00:13:34;99048.81;;;2.06;99.11
65557;BME280;52200;53.490;14.376;2023-02-25T00:16:04;99053.06;;;2.01;99.71
65557;BME280;52200;53.490;14.376;2023-02-25T00:18:30;99037.69;;;2.19;99.61
65557;BME280;52200;53.490;14.376;2023-02-25T00:20:56;99044.78;;;2.39;99.21
65557;BME280;52200;53.490;14.376;2023-02-25T00:23:22;99035.88;;;2.26;98.45
65557;BME280;52200;53.490;14.376;2023-02-25T00:25:47;99045.97;;;2.21;98.60
65557;BME280;52200;53.490;14.376;2023-02-25T00:28:13;99038.63;;;2.14;98.40
65557;BME280;52200;53.490;14.376;2023-02-25T00:30:39;99047.88;;;2.10;98.87
65557;BME280;52200;53.490;14.376;2023-02-25T00:33:06;99035.78;;;2.31;98.29
65557;BME280;52200;53.490;14.376;2023-02-25T00:35:31;99036.97;;;2.53;96.81
65557;BME280;52200;53.490;14.376;2023-02-25T00:37:57;99033.19;;;2.35;96.34
65557;BME280;52200;53.490;14.376;2023-02-25T00:40:23;99036.84;;;2.19;97.12
65557;BME280;52200;53.490;14.376;2023-02-25T00:42:48;99037.72;;;2.16;97.18
65557;BME280;52200;53.490;14.376;2023-02-25T00:45:13;99037.56;;;2.25;96.53
65557;BME280;52200;53.490;14.376;2023-02-25T00:47:39;99029.19;;;2.27;96.72
65557;BME280;52200;53.490;14.376;2023-02-25T00:50:06;99038.16;;;2.37;96.70
65557;BME280;52200;53.490;14.376;2023-02-25T00:52:33;99033.97;;;2.39;95.62
65557;BME280;52200;53.490;14.376;2023-02-25T00:54:59;99032.06;;;2.50;95.68
65557;BME280;52200;53.490;14.376;2023-02-25T00:57:24;99034.25;;;2.23;96.13
65557;BME280;52200;53.490;14.376;2023-02-25T00:59:49;99038.28;;;2.31;96.87
65557;BME280;52200;53.490;14.376;2023-02-25T01:02:15;99028.94;;;2.39;96.67
65557;BME280;52200;53.490;14.376;2023-02-25T01:04:40;99028.91;;;2.40;96.00
65557;BME280;52200;53.490;14.376;2023-02-25T01:07:06;99030.56;;;2.40;95.68
65557;BME280;52200;53.490;14.376;2023-02-25T01:09:31;99027.59;;;2.22;95.71
65557;BME280;52200;53.490;14.376;2023-02-25T01:11:57;99025.25;;;2.15;96.40
65557;BME280;52200;53.490;14.376;2023-02-25T01:14:24;99028.69;;;2.11;97.44
65557;BME280;52200;53.490;14.376;2023-02-25T01:16:51;99029.63;;;2.05;97.67
65557;BME280;52200;53.490;14.376;2023-02-25T01:19:22;99025.69;;;2.34;97.44
65557;BME280;52200;53.490;14.376;2023-02-25T01:21:51;99024.25;;;2.23;96.53
65557;BME280;52200;53.490;14.376;2023-02-25T01:24:26;99023.22;;;2.32;97.13
65557;BME280;52200;53.490;14.376;2023-02-25T01:26:53;99026.66;;;2.28;97.31
65557;BME280;52200;53.490;14.376;2023-02-25T01:29:25;99021.00;;;2.18;97.13
65557;BME280;52200;53.490;14.376;2023-02-25T01:31:55;99018.97;;;2.36;97.04
65557;BME280;52200;53.490;14.376;2023-02-25T01:34:21;99019.47;;;2.11;96.83
65557;BME280;52200;53.490;14.376;2023-02-25T01:36:47;99014.66;;;2.02;97.73
65557;BME280;52200;53.490;14.376;2023-02-25T01:39:14;99022.94;;;2.04;98.02
65557;BME280;52200;53.490;14.376;2023-02-25T01:41:40;99016.41;;;1.97;98.34
65557;BME280;52200;53.490;14.376;2023-02-25T01:44:16;99017.91;;;2.07;98.18
65557;BME280;52200;53.490;14.376;2023-02-25T01:46:45;99010.63;;;1.93;98.28
65557;BME280;52200;53.490;14.376;2023-02-25T01:51:38;99025.66;;;1.95;99.31
65557;BME280;52200;53.490;14.376;2023-02-25T01:54:08;99011.47;;;1.93;99.28
65557;BME280;52200;53.490;14.376;2023-02-25T01:56:36;99024.72;;;1.99;99.36
65557;BME280;52200;53.490;14.376;2023-02-25T01:59:03;99018.25;;;1.87;100.00
65557;BME280;52200;53.490;14.376;2023-02-25T02:01:31;99014.13;;;1.84;100.00
65557;BME280;52200;53.490;14.376;2023-02-25T02:04:00;99019.75;;;1.52;100.00
65557;BME280;52200;53.490;14.376;2023-02-25T02:06:32;99017.00;;;1.64;100.00
65557;BME280;52200;53.490;14.376;2023-02-25T02:08:59;99017.59;;;1.79;100.00
65557;BME280;52200;53.490;14.376;2023-02-25T02:11:25;99019.19;;;1.83;100.00
65557;BME280;52200;53.490;14.376;2023-02-25T02:13:54;99020.25;;;1.69;100.00
65557;BME280;52200;53.490;14.376;2023-02-25T02:19:02;99028.72;;;1.64;100.00
65557;BME280;52200;53.490;14.376;2023-02-25T02:21:42;99025.28;;;1.68;100.00
65557;BME280;52200;53.490;14.376;2023-02-25T02:27:08;99025.88;;;1.81;100.00
65557;BME280;52200;53.490;14.376;2023-02-25T02:32:13;99027.78;;;2.13;100.00
65557;BME280;52200;53.490;14.376;2023-02-25T02:37:30;99038.41;;;1.82;100.00
65557;BME280;52200;53.490;14.376;2023-02-25T02:40:23;99026.22;;;1.64;100.00
65557;BME280;52200;53.490;14.376;2023-02-25T02:45:44;99026.28;;;1.59;100.00
65557;BME280;52200;53.490;14.376;2023-02-25T02:48:19;99033.06;;;1.54;100.00
65557;BME280;52200;53.490;14.376;2023-02-25T02:50:56;99034.31;;;1.76;100.00
65557;BME280;52200;53.490;14.376;2023-02-25T02:53:37;99035.53;;;2.01;100.00
65557;BME280;52200;53.490;14.376;2023-02-25T02:56:06;99035.84;;;1.84;100.00
65557;BME280;52200;53.490;14.376;2023-02-25T02:58:45;99032.84;;;1.66;100.00
65557;BME280;52200;53.490;14.376;2023-02-25T03:01:22;99035.16;;;1.77;100.00
65557;BME280;52200;53.490;14.376;2023-02-25T03:04:04;99039.75;;;1.99;100.00
65557;BME280;52200;53.490;14.376;2023-02-25T03:06:34;99042.84;;;1.66;100.00
65557;BME280;52200;53.490;14.376;2023-02-25T03:09:13;99044.50;;;1.66;100.00
65557;BME280;52200;53.490;14.376;2023-02-25T03:11:40;99041.13;;;1.68;100.00
65557;BME280;52200;53.490;14.376;2023-02-25T03:14:05;99050.47;;;2.05;100.00
65557;BME280;52200;53.490;14.376;2023-02-25T03:19:05;99048.59;;;1.71;100.00
65557;BME280;52200;53.490;14.376;2023-02-25T03:21:38;99053.41;;;1.82;100.00
65557;BME280;52200;53.490;14.376;2023-02-25T03:24:09;99058.56;;;1.73;100.00
65557;BME280;52200;53.490;14.376;2023-02-25T03:26:36;99058.53;;;1.76;100.00
65557;BME280;52200;53.490;14.376;2023-02-25T03:29:02;99065.19;;;1.77;100.00
65557;BME280;52200;53.490;14.376;2023-02-25T03:31:39;99063.44;;;1.82;100.00
65557;BME280;52200;53.490;14.376;2023-02-25T03:34:10;99070.03;;;1.86;100.00
65557;BME280;52200;53.490;14.376;2023-02-25T03:36:44;99073.19;;;1.96;100.00
65557;BME280;52200;53.490;14.376;2023-02-25T03:39:14;99071.69;;;1.87;100.00
65557;BME280;52200;53.490;14.376;2023-02-25T03:41:43;99070.25;;;1.74;100.00
65557;BME280;52200;53.490;14.376;2023-02-25T03:44:14;99074.28;;;1.81;100.00
65557;BME280;52200;53.490;14.376;2023-02-25T03:46:42;99081.84;;;1.78;100.00
65557;BME280;52200;53.490;14.376;2023-02-25T03:49:11;99084.13;;;1.90;100.00
65557;BME280;52200;53.490;14.376;2023-02-25T03:51:40;99090.00;;;1.89;100.00
65557;BME280;52200;53.490;14.376;2023-02-25T03:54:08;99086.22;;;1.67;100.00
65557;BME280;52200;53.490;14.376;2023-02-25T03:56:45;99083.66;;;1.70;100.00
65557;BME280;52200;53.490;14.376;2023-02-25T03:59:11;99085.88;;;1.85;100.00
65557;BME280;52200;53.490;14.376;2023-02-25T04:01:37;99095.97;;;1.82;100.00
65557;BME280;52200;53.490;14.376;2023-02-25T04:04:04;99098.63;;;1.73;100.00
65557;BME280;52200;53.490;14.376;2023-02-25T04:06:29;99099.44;;;1.75;100.00
65557;BME280;52200;53.490;14.376;2023-02-25T04:08:54;99102.97;;;1.61;100.00
65557;BME280;52200;53.490;14.376;2023-02-25T04:11:20;99116.50;;;1.51;100.00
65557;BME280;52200;53.490;14.376;2023-02-25T04:13:45;99114.72;;;1.58;100.00
65557;BME280;52200;53.490;14.376;2023-02-25T04:16:10;99117.53;;;1.38;100.00
65557;BME280;52200;53.490;14.376;2023-02-25T04:18:36;99119.97;;;1.41;100.00
65557;BME280;52200;53.490;14.376;2023-02-25T04:21:04;99120.84;;;1.40;100.00
65557;BME280;52200;53.490;14.376;2023-02-25T04:23:29;99120.94;;;1.32;100.00
65557;BME280;52200;53.490;14.376;2023-02-25T04:25:55;99132.66;;;1.28;100.00
65557;BME280;52200;53.490;14.376;2023-02-25T04:28:20;99134.47;;;1.20;100.00
65557;BME280;52200;53.490;14.376;2023-02-25T04:30:45;99130.16;;;1.30;100.00
65557;BME280;52200;53.490;14.376;2023-02-25T04:33:11;99141.94;;;1.23;100.00
65557;BME280;52200;53.490;14.376;2023-02-25T04:35:37;99144.41;;;1.26;100.00
65557;BME280;52200;53.490;14.376;2023-02-25T04:38:03;99142.75;;;1.25;100.00
65557;BME280;52200;53.490;14.376;2023-02-25T04:40:28;99147.00;;;1.17;100.00
65557;BME280;52200;53.490;14.376;2023-02-25T04:42:53;99147.13;;;1.09;100.00
65557;BME280;52200;53.490;14.376;2023-02-25T04:45:19;99147.19;;;1.05;100.00
65557;BME280;52200;53.490;14.376;2023-02-25T04:47:51;99147.88;;;1.15;100.00
65557;BME280;52200;53.490;14.376;2023-02-25T04:50:17;99151.41;;;1.00;100.00
65557;BME280;52200;53.490;14.376;2023-02-25T04:52:42;99160.56;;;1.02;100.00
65557;BME280;52200;53.490;14.376;2023-02-25T04:55:08;99155.53;;;1.05;100.00
65557;BME280;52200;53.490;14.376;2023-02-25T04:57:35;99155.44;;;1.10;100.00
65557;BME280;52200;53.490;14.376;2023-02-25T05:00:02;99160.44;;;1.10;100.00
65557;BME280;52200;53.490;14.376;2023-02-25T05:02:39;99174.56;;;1.14;100.00
65557;BME280;52200;53.490;14.376;2023-02-25T05:05:04;99168.78;;;1.10;100.00
65557;BME280;52200;53.490;14.376;2023-02-25T05:07:30;99169.53;;;1.16;100.00
65557;BME280;52200;53.490;14.376;2023-02-25T05:09:55;99173.56;;;1.26;100.00
65557;BME280;52200;53.490;14.376;2023-02-25T05:12:20;99182.00;;;1.20;100.00
65557;BME280;52200;53.490;14.376;2023-02-25T05:14:46;99174.44;;;1.23;100.00
65557;BME280;52200;53.490;14.376;2023-02-25T05:17:11;99180.28;;;1.22;100.00
65557;BME280;52200;53.490;14.376;2023-02-25T05:19:40;99179.50;;;1.20;100.00
65557;BME280;52200;53.490;14.376;2023-02-25T05:22:05;99183.75;;;1.12;100.00
65557;BME280;52200;53.490;14.376;2023-02-25T05:24:31;99181.19;;;1.18;100.00
65557;BME280;52200;53.490;14.376;2023-02-25T05:26:56;99187.88;;;1.16;100.00
65557;BME280;52200;53.490;14.376;2023-02-25T05:29:21;99189.66;;;1.08;100.00
65557;BME280;52200;53.490;14.376;2023-02-25T05:31:47;99188.09;;;1.01;100.00
65557;BME280;52200;53.490;14.376;2023-02-25T05:34:15;99196.34;;;1.06;100.00
65557;BME280;52200;53.490;14.376;2023-02-25T05:36:40;99200.59;;;1.01;100.00
65557;BME280;52200;53.490;14.376;2023-02-25T05:39:06;99200.63;;;0.96;100.00
65557;BME280;52200;53.490;14.376;2023-02-25T05:41:31;99195.72;;;0.88;100.00
65557;BME280;52200;53.490;14.376;2023-02-25T05:43:57;99216.53;;;0.92;100.00
65557;BME280;52200;53.490;14.376;2023-02-25T05:46:22;99218.09;;;0.99;100.00
65557;BME280;52200;53.490;14.376;2023-02-25T05:48:48;99221.44;;;0.96;100.00
65557;BME280;52200;53.490;14.376;2023-02-25T05:51:17;99223.88;;;1.03;100.00
65557;BME280;52200;53.490;14.376;2023-02-25T05:53:43;99230.59;;;0.99;100.00
65557;BME280;52200;53.490;14.376;2023-02-25T05:56:16;99234.75;;;1.02;100.00
65557;BME280;52200;53.490;14.376;2023-02-25T05:58:42;99231.50;;;0.93;100.00
65557;BME280;52200;53.490;14.376;2023-02-25T06:01:12;99232.38;;;0.89;100.00
65557;BME280;52200;53.490;14.376;2023-02-25T06:03:42;99241.53;;;0.92;100.00
65557;BME280;52200;53.490;14.376;2023-02-25T06:06:09;99253.28;;;0.82;100.00
65557;BME280;52200;53.490;14.376;2023-02-25T06:08:37;99264.91;;;0.86;100.00
65557;BME280;52200;53.490;14.376;2023-02-25T06:11:05;99265.66;;;0.94;100.00
65557;BME280;52200;53.490;14.376;2023-02-25T06:13:31;99267.38;;;0.89;100.00
65557;BME280;52200;53.490;14.376;2023-02-25T06:15:56;99271.59;;;0.83;100.00
65557;BME280;52200;53.490;14.376;2023-02-25T06:18:22;99276.59;;;0.83;100.00
65557;BME280;52200;53.490;14.376;2023-02-25T06:20:47;99283.22;;;0.85;100.00
65557;BME280;52200;53.490;14.376;2023-02-25T06:23:13;99299.94;;;0.83;100.00
65557;BME280;52200;53.490;14.376;2023-02-25T06:25:38;99304.09;;;0.83;100.00
65557;BME280;52200;53.490;14.376;2023-02-25T06:28:03;99327.53;;;0.72;100.00
65557;BME280;52200;53.490;14.376;2023-02-25T06:30:29;99318.44;;;0.65;100.00
65557;BME280;52200;53.490;14.376;2023-02-25T06:32:55;99322.59;;;0.66;100.00
65557;BME280;52200;53.490;14.376;2023-02-25T06:35:21;99331.72;;;0.69;100.00
65557;BME280;52200;53.490;14.376;2023-02-25T06:37:55;99337.53;;;0.69;100.00
65557;BME280;52200;53.490;14.376;2023-02-25T06:40:21;99340.84;;;0.74;100.00
65557;BME280;52200;53.490;14.376;2023-02-25T06:42:47;99334.19;;;0.72;100.00
65557;BME280;52200;53.490;14.376;2023-02-25T06:45:12;99355.00;;;0.74;100.00
65557;BME280;52200;53.490;14.376;2023-02-25T06:47:37;99357.53;;;0.71;100.00
65557;BME280;52200;53.490;14.376;2023-02-25T06:50:03;99355.91;;;0.65;100.00
65557;BME280;52200;53.490;14.376;2023-02-25T06:52:29;99376.72;;;0.66;100.00
65557;BME280;52200;53.490;14.376;2023-02-25T06:54:55;99383.38;;;0.68;100.00
65557;BME280;52200;53.490;14.376;2023-02-25T06:57:20;99390.03;;;0.68;100.00
65557;BME280;52200;53.490;14.376;2023-02-25T06:59:45;99393.31;;;0.76;100.00
65557;BME280;52200;53.490;14.376;2023-02-25T07:02:12;99392.47;;;0.75;100.00
65557;BME280;52200;53.490;14.376;2023-02-25T07:04:38;99387.53;;;0.71;100.00
65557;BME280;52200;53.490;14.376;2023-02-25T07:07:07;99403.44;;;0.57;100.00
65557;BME280;52200;53.490;14.376;2023-02-25T07:09:32;99410.84;;;0.71;100.00
65557;BME280;52200;53.490;14.376;2023-02-25T07:11:58;99416.56;;;0.84;100.00
65557;BME280;52200;53.490;14.376;2023-02-25T07:14:23;99424.25;;;0.61;100.00
65557;BME280;52200;53.490;14.376;2023-02-25T07:16:49;99424.28;;;0.53;100.00
65557;BME280;52200;53.490;14.376;2023-02-25T07:19:14;99428.53;;;0.42;100.00
65557;BME280;52200;53.490;14.376;2023-02-25T07:21:41;99445.19;;;0.43;100.00
65557;BME280;52200;53.490;14.376;2023-02-25T07:24:06;99444.34;;;0.44;100.00
65557;BME280;52200;53.490;14.376;2023-02-25T07:26:32;99449.34;;;0.41;100.00
65557;BME280;52200;53.490;14.376;2023-02-25T07:28:58;99459.34;;;0.42;100.00
65557;BME280;52200;53.490;14.376;2023-02-25T07:31:25;99481.78;;;0.45;100.00
65557;BME280;52200;53.490;14.376;2023-02-25T07:33:51;99465.16;;;0.43;100.00
65557;BME280;52200;53.490;14.376;2023-02-25T07:36:18;99475.25;;;0.27;100.00
65557;BME280;52200;53.490;14.376;2023-02-25T07:38:44;99480.28;;;0.21;100.00
65557;BME280;52200;53.490;14.376;2023-02-25T07:41:12;99489.44;;;0.10;100.00
65557;BME280;52200;53.490;14.376;2023-02-25T07:43:38;99488.66;;;0.05;100.00
65557;BME280;52200;53.490;14.376;2023-02-25T07:46:04;99503.63;;;0.09;100.00
65557;BME280;52200;53.490;14.376;2023-02-25T07:48:30;99511.94;;;0.13;100.00
65557;BME280;52200;53.490;14.376;2023-02-25T07:51:03;99516.13;;;0.02;100.00
65557;BME280;52200;53.490;14.376;2023-02-25T07:53:29;99517.78;;;-0.01;100.00
65557;BME280;52200;53.490;14.376;2023-02-25T07:55:54;99532.75;;;0.01;100.00
65557;BME280;52200;53.490;14.376;2023-02-25T07:58:20;99538.63;;;-0.05;100.00
65557;BME280;52200;53.490;14.376;2023-02-25T08:00:45;99535.25;;;-0.01;100.00
65557;BME280;52200;53.490;14.376;2023-02-25T08:03:10;99542.72;;;0.07;100.00
65557;BME280;52200;53.490;14.376;2023-02-25T08:05:37;99556.84;;;0.10;100.00
65557;BME280;52200;53.490;14.376;2023-02-25T08:08:03;99553.56;;;-0.02;100.00
65557;BME280;52200;53.490;14.376;2023-02-25T08:10:29;99560.25;;;-0.02;100.00
65557;BME280;52200;53.490;14.376;2023-02-25T08:12:54;99565.22;;;0.03;100.00
65557;BME280;52200;53.490;14.376;2023-02-25T08:15:19;99571.06;;;-0.11;100.00
65557;BME280;52200;53.490;14.376;2023-02-25T08:17:44;99573.56;;;-0.08;100.00
65557;BME280;52200;53.490;14.376;2023-02-25T08:20:10;99581.88;;;-0.09;100.00
65557;BME280;52200;53.490;14.376;2023-02-25T08:22:36;99585.22;;;-0.13;100.00
65557;BME280;52200;53.490;14.376;2023-02-25T08:25:03;99586.88;;;-0.13;100.00
65557;BME280;52200;53.490;14.376;2023-02-25T08:27:28;99590.22;;;-0.10;100.00
65557;BME280;52200;53.490;14.376;2023-02-25T08:29:54;99602.69;;;-0.10;100.00
65557;BME280;52200;53.490;14.376;2023-02-25T08:32:20;99601.84;;;-0.12;100.00
65557;BME280;52200;53.490;14.376;2023-02-25T08:34:49;99613.50;;;-0.14;100.00
65557;BME280;52200;53.490;14.376;2023-02-25T08:37:15;99616.84;;;-0.24;100.00
65557;BME280;52200;53.490;14.376;2023-02-25T08:39:40;99626.78;;;-0.09;100.00
65557;BME280;52200;53.490;14.376;2023-02-25T08:42:05;99636.78;;;-0.15;100.00
65557;BME280;52200;53.490;14.376;2023-02-25T08:44:31;99639.28;;;0.01;100.00
65557;BME280;52200;53.490;14.376;2023-02-25T08:46:56;99651.75;;;0.01;100.00
65557;BME280;52200;53.490;14.376;2023-02-25T08:49:21;99656.75;;;-0.03;100.00
65557;BME280;52200;53.490;14.376;2023-02-25T08:51:49;99663.41;;;-0.02;100.00
65557;BME280;52200;53.490;14.376;2023-02-25T08:54:15;99663.41;;;-0.02;100.00
65557;BME280;52200;53.490;14.376;2023-02-25T08:56:40;99668.41;;;0.02;100.00
65557;BME280;52200;53.490;14.376;2023-02-25T08:59:10;99666.75;;;-0.06;100.00
65557;BME280;52200;53.490;14.376;2023-02-25T09:01:35;99671.72;;;0.04;100.00
65557;BME280;52200;53.490;14.376;2023-02-25T09:04:12;99686.69;;;-0.09;100.00
65557;BME280;52200;53.490;14.376;2023-02-25T09:06:38;99694.19;;;-0.12;100.00
65557;BME280;52200;53.490;14.376;2023-02-25T09:09:03;99700.84;;;-0.03;100.00
65557;BME280;52200;53.490;14.376;2023-02-25T09:11:29;99696.69;;;-0.12;100.00
65557;BME280;52200;53.490;14.376;2023-02-25T09:13:55;99707.53;;;-0.16;100.00
65557;BME280;52200;53.490;14.376;2023-02-25T09:16:20;99704.19;;;-0.07;100.00
65557;BME280;52200;53.490;14.376;2023-02-25T09:18:47;99714.16;;;-0.04;100.00
65557;BME280;52200;53.490;14.376;2023-02-25T09:21:14;99715.84;;;0.00;100.00
65557;BME280;52200;53.490;14.376;2023-02-25T09:23:40;99726.66;;;0.01;100.00
65557;BME280;52200;53.490;14.376;2023-02-25T09:26:06;99726.63;;;-0.03;100.00
65557;BME280;52200;53.490;14.376;2023-02-25T09:28:32;99741.63;;;-0.06;100.00
65557;BME280;52200;53.490;14.376;2023-02-25T09:30:57;99743.28;;;-0.08;100.00
65557;BME280;52200;53.490;14.376;2023-02-25T09:33:24;99749.97;;;-0.04;100.00
65557;BME280;52200;53.490;14.376;2023-02-25T09:35:49;99754.09;;;-0.18;100.00
65557;BME280;52200;53.490;14.376;2023-02-25T09:38:15;99762.44;;;-0.10;100.00
65557;BME280;52200;53.490;14.376;2023-02-25T09:40:44;99769.88;;;-0.24;100.00
65557;BME280;52200;53.490;14.376;2023-02-25T09:43:23;99766.59;;;-0.03;100.00
65557;BME280;52200;53.490;14.376;2023-02-25T09:45:52;99770.75;;;-0.08;100.00
65557;BME280;52200;53.490;14.376;2023-02-25T09:48:30;99779.06;;;-0.12;100.00
65557;BME280;52200;53.490;14.376;2023-02-25T09:51:14;99774.91;;;-0.10;100.00
65557;BME280;52200;53.490;14.376;2023-02-25T09:53:51;99784.91;;;-0.10;100.00
65557;BME280;52200;53.490;14.376;2023-02-25T09:56:18;99778.25;;;-0.05;100.00
65557;BME280;52200;53.490;14.376;2023-02-25T09:58:53;99793.19;;;-0.08;100.00
65557;BME280;52200;53.490;14.376;2023-02-25T10:01:32;99799.88;;;-0.16;100.00
65557;BME280;52200;53.490;14.376;2023-02-25T10:04:08;99802.38;;;-0.07;100.00
65557;BME280;52200;53.490;14.376;2023-02-25T10:06:39;99804.88;;;-0.04;100.00
65557;BME280;52200;53.490;14.376;2023-02-25T10:10:00;99814.84;;;-0.01;100.00
65557;BME280;52200;53.490;14.376;2023-02-25T10:17:48;99829.03;;;0.13;100.00
65557;BME280;52200;53.490;14.376;2023-02-25T10:25:41;99849.84;;;0.24;100.00
65557;BME280;52200;53.490;14.376;2023-02-25T10:28:15;99858.19;;;0.29;100.00
65557;BME280;52200;53.490;14.376;2023-02-25T10:30:50;99854.84;;;0.30;100.00
65557;BME280;52200;53.490;14.376;2023-02-25T10:33:20;99856.53;;;0.38;100.00
65557;BME280;52200;53.490;14.376;2023-02-25T10:35:55;99860.69;;;0.48;100.00
65557;BME280;52200;53.490;14.376;2023-02-25T10:38:23;99869.03;;;0.52;100.00
65557;BME280;52200;53.490;14.376;2023-02-25T10:40:52;99872.34;;;0.49;100.00
65557;BME280;52200;53.490;14.376;2023-02-25T10:43:24;99877.34;;;0.51;100.00
65557;BME280;52200;53.490;14.376;2023-02-25T10:45:59;99879.84;;;0.46;100.00
65557;BME280;52200;53.490;14.376;2023-02-25T10:48:28;99879.88;;;0.52;100.00
65557;BME280;52200;53.490;14.376;2023-02-25T10:51:08;99889.84;;;0.66;100.00
65557;BME280;52200;53.490;14.376;2023-02-25T10:53:40;99906.50;;;0.53;100.00
65557;BME280;52200;53.490;14.376;2023-02-25T10:56:31;99910.66;;;0.45;100.00
65557;BME280;52200;53.490;14.376;2023-02-25T10:59:23;99913.19;;;0.70;100.00
65557;BME280;52200;53.490;14.376;2023-02-25T11:01:50;99925.69;;;0.71;100.00
65557;BME280;52200;53.490;14.376;2023-02-25T11:04:19;99924.00;;;0.75;100.00
65557;BME280;52200;53.490;14.376;2023-02-25T11:06:46;99923.19;;;0.82;100.00
65557;BME280;52200;53.490;14.376;2023-02-25T11:11:55;99936.47;;;0.59;100.00
65557;BME280;52200;53.490;14.376;2023-02-25T11:14:30;99943.13;;;0.39;100.00
65557;BME280;52200;53.490;14.376;2023-02-25T11:17:17;99943.09;;;0.23;100.00
65557;BME280;52200;53.490;14.376;2023-02-25T11:19:47;99943.97;;;0.44;100.00
65557;BME280;52200;53.490;14.376;2023-02-25T11:22:22;99958.97;;;0.50;100.00
65557;BME280;52200;53.490;14.376;2023-02-25T11:24:59;99956.44;;;0.35;100.00
65557;BME280;52200;53.490;14.376;2023-02-25T11:30:01;99961.41;;;0.25;100.00
65557;BME280;52200;53.490;14.376;2023-02-25T11:32:27;99964.72;;;0.18;100.00
65557;BME280;52200;53.490;14.376;2023-02-25T11:34:56;99973.88;;;0.21;100.00
65557;BME280;52200;53.490;14.376;2023-02-25T11:37:34;99974.72;;;0.24;100.00
65557;BME280;52200;53.490;14.376;2023-02-25T11:40:01;99976.41;;;0.35;100.00
65557;BME280;52200;53.490;14.376;2023-02-25T11:42:27;99979.75;;;0.35;100.00
65557;BME280;52200;53.490;14.376;2023-02-25T11:45:02;99985.50;;;0.17;100.00
65557;BME280;52200;53.490;14.376;2023-02-25T11:47:30;99991.38;;;0.19;100.00
65557;BME280;52200;53.490;14.376;2023-02-25T11:52:45;99998.88;;;0.27;100.00
65557;BME280;52200;53.490;14.376;2023-02-25T11:55:29;99998.84;;;0.18;100.00
65557;BME280;52200;53.490;14.376;2023-02-25T11:58:12;100009.75;;;0.35;100.00
65557;BME280;52200;53.490;14.376;2023-02-25T12:00:59;100007.22;;;0.27;100.00
65557;BME280;52200;53.490;14.376;2023-02-25T12:06:29;100019.66;;;0.18;100.00
65557;BME280;52200;53.490;14.376;2023-02-25T12:21:28;100033.88;;;0.35;100.00
65557;BME280;52200;53.490;14.376;2023-02-25T12:29:46;100058.84;;;0.30;100.00
65557;BME280;52200;53.490;14.376;2023-02-25T12:32:52;100071.22;;;0.07;100.00
65557;BME280;52200;53.490;14.376;2023-02-25T12:41:39;100062.06;;;0.13;100.00
65557;BME280;52200;53.490;14.376;2023-02-25T12:52:17;100078.63;;;-0.03;100.00
65557;BME280;52200;53.490;14.376;2023-02-25T13:00:43;100092.97;;;0.26;100.00
65557;BME280;52200;53.490;14.376;2023-02-25T13:14:25;100126.97;;;0.04;100.00
65557;BME280;52200;53.490;14.376;2023-02-25T13:17:20;100133.50;;;-0.12;100.00
65557;BME280;52200;53.490;14.376;2023-02-25T13:20:23;100131.78;;;-0.22;100.00
65557;BME280;52200;53.490;14.376;2023-02-25T13:34:27;100162.59;;;-0.17;100.00
65557;BME280;52200;53.490;14.376;2023-02-25T13:37:39;100162.56;;;-0.20;100.00
65557;BME280;52200;53.490;14.376;2023-02-25T13:45:44;100173.41;;;-0.17;100.00
65557;BME280;52200;53.490;14.376;2023-02-25T14:10:45;100214.03;;;-0.31;100.00
65557;BME280;52200;53.490;14.376;2023-02-25T14:22:11;100222.44;;;-0.20;100.00
65557;BME280;52200;53.490;14.376;2023-02-25T14:30:21;100242.34;;;-0.29;100.00
65557;BME280;52200;53.490;14.376;2023-02-25T14:35:54;100253.03;;;-0.40;100.00
65557;BME280;52200;53.490;14.376;2023-02-25T14:44:10;100275.50;;;-0.40;100.00
65557;BME280;52200;53.490;14.376;2023-02-25T14:46:59;100292.13;;;-0.42;100.00
65557;BME280;52200;53.490;14.376;2023-02-25T14:49:42;100292.19;;;-0.36;100.00
65557;BME280;52200;53.490;14.376;2023-02-25T14:58:01;100298.94;;;-0.28;100.00
65557;BME280;52200;53.490;14.376;2023-02-25T15:00:40;100302.31;;;-0.23;100.00
65557;BME280;52200;53.490;14.376;2023-02-25T15:03:34;100306.34;;;-0.35;100.00
65557;BME280;52200;53.490;14.376;2023-02-25T15:20:31;100334.00;;;-0.16;100.00
65557;BME280;52200;53.490;14.376;2023-02-25T15:33:40;100342.13;;;-0.33;100.00
65557;BME280;52200;53.490;14.376;2023-02-25T15:51:48;100386.28;;;-0.27;100.00
65557;BME280;52200;53.490;14.376;2023-02-25T15:59:58;100397.09;;;-0.26;100.00
65557;BME280;52200;53.490;14.376;2023-02-25T16:05:20;100413.75;;;-0.25;100.00
65557;BME280;52200;53.490;14.376;2023-02-25T16:08:03;100423.72;;;-0.28;100.00
65557;BME280;52200;53.490;14.376;2023-02-25T16:10:39;100425.44;;;-0.24;100.00
65557;BME280;52200;53.490;14.376;2023-02-25T16:13:13;100427.03;;;-0.28;100.00
65557;BME280;52200;53.490;14.376;2023-02-25T16:15:45;100431.06;;;-0.38;100.00
65557;BME280;52200;53.490;14.376;2023-02-25T16:18:16;100440.25;;;-0.34;100.00
65557;BME280;52200;53.490;14.376;2023-02-25T16:20:47;100446.81;;;-0.42;100.00
65557;BME280;52200;53.490;14.376;2023-02-25T16:23:14;100450.16;;;-0.40;100.00
65557;BME280;52200;53.490;14.376;2023-02-25T16:25:54;100451.66;;;-0.51;100.00
65557;BME280;52200;53.490;14.376;2023-02-25T16:28:31;100456.81;;;-0.42;100.00